createdAt,value
2018-02-14T00:01:39.353Z,52.83
2018-02-14T00:04:06.875Z,53.28
2018-02-14T00:06:34.345Z,53.27
2018-02-14T00:09:01.907Z,53.21
2018-02-14T00:11:29.405Z,53.07
2018-02-14T00:13:56.922Z,52.79
2018-02-14T00:16:24.394Z,52.70
2018-02-14T00:18:51.908Z,52.80
2018-02-14T00:21:19.385Z,52.87
2018-02-14T00:23:46.864Z,53.12
2018-02-14T00:26:14.367Z,52.91
2018-02-14T00:28:41.860Z,52.83
2018-02-14T00:31:09.985Z,53.00
2018-02-14T00:33:37.598Z,53.15
2018-02-14T00:36:05.131Z,53.21
2018-02-14T00:38:33.156Z,53.48
2018-02-14T00:41:00.643Z,53.63
2018-02-14T00:43:28.192Z,53.68
2018-02-14T00:45:55.672Z,53.67
2018-02-14T00:48:23.189Z,53.79
2018-02-14T00:50:50.662Z,53.76
2018-02-14T00:53:18.143Z,54.06
2018-02-14T00:55:45.712Z,53.89
2018-02-14T00:58:13.215Z,54.05
2018-02-14T01:00:40.774Z,53.75
2018-02-14T01:03:08.320Z,53.72
2018-02-14T01:05:35.829Z,53.58
2018-02-14T01:08:03.315Z,53.64
2018-02-14T01:10:30.831Z,54.09
2018-02-14T01:12:58.560Z,53.87
2018-02-14T01:15:26.093Z,53.69
2018-02-14T01:17:53.622Z,53.52
2018-02-14T01:20:26.691Z,53.66
2018-02-14T01:22:54.165Z,53.80
2018-02-14T01:25:21.650Z,54.03
2018-02-14T01:27:49.167Z,53.97
2018-02-14T01:30:16.649Z,53.83
2018-02-14T01:32:44.159Z,53.67
2018-02-14T01:35:11.658Z,53.77
2018-02-14T01:37:39.224Z,53.93
2018-02-14T01:40:06.816Z,53.88
2018-02-14T01:42:34.298Z,54.11
2018-02-14T01:45:01.829Z,54.52
2018-02-14T01:47:29.860Z,54.38
2018-02-14T01:49:58.597Z,54.47
2018-02-14T01:52:26.095Z,54.50
2018-02-14T01:54:53.603Z,54.32
2018-02-14T01:57:21.273Z,54.25
2018-02-14T01:59:48.790Z,54.14
2018-02-14T02:02:16.287Z,54.11
2018-02-14T02:04:43.812Z,53.95
2018-02-14T02:07:11.429Z,53.96
2018-02-14T02:09:38.978Z,53.88
2018-02-14T02:12:06.506Z,53.94
2018-02-14T02:14:34.610Z,53.91
2018-02-14T02:17:02.125Z,53.88
2018-02-14T02:19:29.654Z,53.92
2018-02-14T02:21:57.139Z,54.19
2018-02-14T02:24:24.652Z,54.22
2018-02-14T02:26:52.135Z,54.53
2018-02-14T02:29:19.654Z,54.55
2018-02-14T02:31:47.145Z,54.60
2018-02-14T02:34:14.642Z,54.70
2018-02-14T02:36:42.145Z,54.59
2018-02-14T02:39:21.539Z,54.65
2018-02-14T02:41:49.148Z,54.79
2018-02-14T02:44:16.634Z,54.82
2018-02-14T02:46:44.132Z,54.89
2018-02-14T02:49:11.681Z,55.08
2018-02-14T02:51:39.209Z,55.24
2018-02-14T02:54:06.685Z,55.10
2018-02-14T02:56:34.223Z,55.08
2018-02-14T02:59:01.738Z,54.84
2018-02-14T03:01:29.253Z,54.64
2018-02-14T03:03:56.760Z,54.65
2018-02-14T03:06:24.251Z,54.84
2018-02-14T03:08:51.749Z,55.23
2018-02-14T03:11:19.267Z,55.12
2018-02-14T03:13:47.352Z,55.24
2018-02-14T03:16:14.849Z,55.20
2018-02-14T03:18:42.462Z,55.15
2018-02-14T03:21:10.079Z,55.13
2018-02-14T03:23:37.606Z,55.03
2018-02-14T03:26:05.118Z,55.22
2018-02-14T03:28:32.598Z,55.17
2018-02-14T03:31:00.104Z,55.34
2018-02-14T03:33:27.601Z,55.27
2018-02-14T03:35:55.125Z,55.62
2018-02-14T03:38:22.607Z,55.64
2018-02-14T03:40:50.140Z,55.52
2018-02-14T03:43:17.633Z,55.63
2018-02-14T03:45:45.110Z,55.36
2018-02-14T03:48:12.623Z,55.33
2018-02-14T03:50:40.144Z,55.42
2018-02-14T03:53:07.838Z,55.45
2018-02-14T03:55:35.318Z,55.65
2018-02-14T03:58:02.839Z,55.77
2018-02-14T04:00:30.319Z,55.98
2018-02-14T04:02:57.866Z,56.12
2018-02-14T04:05:25.396Z,55.85
2018-02-14T04:07:53.519Z,55.77
2018-02-14T04:10:21.031Z,55.87
2018-02-14T04:12:48.523Z,55.70
2018-02-14T04:15:16.151Z,56.05
2018-02-14T04:17:43.696Z,55.88
2018-02-14T04:20:11.242Z,55.97
2018-02-14T04:22:38.813Z,55.83
2018-02-14T04:25:06.381Z,56.04
2018-02-14T04:27:33.889Z,56.55
2018-02-14T04:30:01.398Z,56.89
2018-02-14T04:32:28.968Z,57.43
2018-02-14T04:34:56.450Z,57.42
2018-02-14T04:37:23.946Z,57.09
2018-02-14T04:39:51.427Z,56.78
2018-02-14T04:42:18.937Z,56.81
2018-02-14T04:44:46.429Z,56.53
2018-02-14T04:47:13.963Z,56.54
2018-02-14T04:49:41.448Z,56.72
2018-02-14T04:52:09.001Z,56.58
2018-02-14T04:54:36.548Z,56.78
2018-02-14T04:57:04.067Z,56.81
2018-02-14T04:59:31.565Z,56.92
2018-02-14T05:01:59.390Z,56.68
2018-02-14T05:04:27.051Z,56.57
2018-02-14T05:06:54.886Z,56.67
2018-02-14T05:09:22.400Z,56.86
2018-02-14T05:11:49.894Z,56.85
2018-02-14T05:14:17.454Z,56.86
2018-02-14T05:16:44.944Z,56.65
2018-02-14T05:19:12.428Z,56.52
2018-02-14T05:21:40.482Z,56.44
2018-02-14T05:24:07.971Z,56.56
2018-02-14T05:26:35.478Z,56.78
2018-02-14T05:29:02.997Z,56.92
2018-02-14T05:31:30.487Z,56.82
2018-02-14T05:33:58.080Z,56.76
2018-02-14T05:36:25.724Z,56.53
2018-02-14T05:38:53.241Z,56.33
2018-02-14T05:41:20.734Z,56.19
2018-02-14T05:43:48.383Z,56.34
2018-02-14T05:46:15.915Z,56.23
2018-02-14T05:48:43.510Z,56.32
2018-02-14T05:51:11.027Z,56.33
2018-02-14T05:53:38.641Z,56.40
2018-02-14T05:56:06.246Z,56.46
2018-02-14T05:58:33.755Z,56.29
2018-02-14T06:01:01.317Z,56.46
2018-02-14T06:03:28.814Z,56.39
2018-02-14T06:05:56.382Z,56.46
2018-02-14T06:08:23.879Z,56.38
2018-02-14T06:10:51.397Z,56.49
2018-02-14T06:13:18.918Z,56.36
2018-02-14T06:15:46.400Z,56.28
2018-02-14T06:18:13.960Z,56.41
2018-02-14T06:20:42.903Z,56.41
2018-02-14T06:23:10.413Z,56.17
2018-02-14T06:25:38.038Z,56.26
2018-02-14T06:28:05.579Z,56.45
2018-02-14T06:30:33.091Z,56.33
2018-02-14T06:33:00.747Z,56.65
2018-02-14T06:35:28.276Z,56.76
2018-02-14T06:37:55.904Z,56.80
2018-02-14T06:40:23.422Z,56.89
2018-02-14T06:42:51.690Z,56.79
2018-02-14T06:45:19.270Z,56.87
2018-02-14T06:47:46.777Z,56.62
2018-02-14T06:50:14.683Z,56.65
2018-02-14T06:52:42.191Z,56.75
2018-02-14T06:55:09.665Z,56.89
2018-02-14T06:57:37.228Z,56.96
2018-02-14T07:00:04.750Z,56.82
2018-02-14T07:02:32.280Z,56.87
2018-02-14T07:04:59.855Z,57.13
2018-02-14T07:07:27.389Z,57.15
2018-02-14T07:09:54.941Z,57.19
2018-02-14T07:12:22.476Z,56.96
2018-02-14T07:14:50.007Z,56.22
2018-02-14T07:17:17.611Z,56.04
2018-02-14T07:19:45.301Z,55.89
2018-02-14T07:22:12.862Z,55.65
2018-02-14T07:24:40.456Z,54.74
2018-02-14T07:27:08.100Z,54.03
2018-02-14T07:29:35.777Z,52.75
2018-02-14T07:32:03.278Z,51.66
2018-02-14T07:34:30.783Z,50.13
2018-02-14T07:36:58.307Z,48.50
2018-02-14T07:39:25.841Z,46.66
2018-02-14T07:41:53.394Z,44.66
2018-02-14T07:44:20.954Z,44.15
2018-02-14T07:46:48.544Z,43.43
2018-02-14T07:49:16.206Z,42.78
2018-02-14T07:51:43.787Z,41.70
2018-02-14T07:54:11.280Z,41.28
2018-02-14T07:56:38.777Z,41.16
2018-02-14T07:59:06.850Z,40.16
2018-02-14T08:01:34.410Z,39.41
2018-02-14T08:04:02.014Z,39.02
2018-02-14T08:06:29.644Z,38.37
2018-02-14T08:08:57.246Z,37.01
2018-02-14T08:11:24.771Z,36.18
2018-02-14T08:13:52.285Z,33.62
2018-02-14T08:16:19.810Z,34.69
2018-02-14T08:18:47.329Z,34.66
2018-02-14T08:21:14.939Z,35.37
2018-02-14T08:23:42.475Z,34.90
2018-02-14T08:26:10.019Z,35.70
2018-02-14T08:28:37.534Z,34.62
2018-02-14T08:31:05.016Z,33.73
2018-02-14T08:33:33.353Z,34.47
2018-02-14T08:36:00.854Z,33.43
2018-02-14T08:38:28.368Z,33.43
2018-02-14T08:40:55.878Z,32.40
2018-02-14T08:43:23.407Z,32.02
2018-02-14T08:45:50.998Z,30.49
2018-02-14T08:48:18.566Z,30.21
2018-02-14T08:50:46.077Z,29.11
2018-02-14T08:53:13.620Z,29.50
2018-02-14T08:55:41.144Z,31.18
2018-02-14T08:58:08.668Z,32.99
2018-02-14T09:00:36.210Z,34.45
2018-02-14T09:03:03.695Z,36.09
2018-02-14T09:05:31.227Z,38.63
2018-02-14T09:07:58.707Z,40.31
2018-02-14T09:10:26.260Z,41.43
2018-02-14T09:12:53.862Z,42.34
2018-02-14T09:15:21.367Z,42.79
2018-02-14T09:17:48.900Z,43.13
2018-02-14T09:20:16.401Z,43.00
2018-02-14T09:22:43.915Z,44.15
2018-02-14T09:25:11.413Z,44.87
2018-02-14T09:27:39.033Z,44.72
2018-02-14T09:30:06.561Z,45.94
2018-02-14T09:32:34.287Z,46.64
2018-02-14T09:35:01.785Z,46.79
2018-02-14T09:37:29.289Z,47.47
2018-02-14T09:39:57.288Z,47.20
2018-02-14T09:42:24.808Z,47.23
2018-02-14T09:44:52.321Z,47.52
2018-02-14T09:47:19.849Z,47.50
2018-02-14T09:49:47.367Z,47.66
2018-02-14T09:52:14.842Z,48.06
2018-02-14T09:54:42.598Z,48.04
2018-02-14T09:57:10.087Z,48.56
2018-02-14T09:59:37.631Z,49.05
2018-02-14T10:02:05.120Z,48.56
2018-02-14T10:04:32.653Z,48.93
2018-02-14T10:07:00.183Z,50.02
2018-02-14T10:09:27.683Z,49.83
2018-02-14T10:11:55.272Z,50.22
2018-02-14T10:14:22.747Z,50.27
2018-02-14T10:16:50.260Z,50.54
2018-02-14T10:19:17.764Z,49.92
2018-02-14T10:21:45.285Z,49.62
2018-02-14T10:24:12.759Z,50.03
2018-02-14T10:26:40.328Z,49.38
2018-02-14T10:29:07.866Z,48.98
2018-02-14T10:31:35.504Z,49.24
2018-02-14T10:34:03.008Z,48.48
2018-02-14T10:36:30.735Z,48.69
2018-02-14T10:38:58.389Z,48.58
2018-02-14T10:41:25.884Z,48.69
2018-02-14T10:43:53.396Z,48.25
2018-02-14T10:46:20.922Z,48.44
2018-02-14T10:48:48.474Z,48.46
2018-02-14T10:51:16.028Z,48.48
2018-02-14T10:53:43.521Z,48.82
2018-02-14T10:56:11.057Z,49.23
2018-02-14T10:58:39.187Z,49.37
2018-02-14T11:01:06.715Z,48.57
2018-02-14T11:03:39.679Z,48.37
2018-02-14T11:06:13.089Z,48.78
2018-02-14T11:08:41.111Z,48.19
2018-02-14T11:11:08.701Z,46.84
2018-02-14T11:13:36.337Z,41.39
2018-02-14T11:16:03.826Z,36.67
2018-02-14T11:18:31.453Z,35.49
2018-02-14T11:20:59.013Z,32.71
2018-02-14T11:23:26.669Z,30.40
2018-02-14T11:25:54.174Z,28.70
2018-02-14T11:28:21.711Z,27.48
2018-02-14T11:30:49.233Z,26.13
2018-02-14T11:33:16.718Z,24.53
2018-02-14T11:35:44.283Z,24.34
2018-02-14T11:38:12.504Z,23.84
2018-02-14T11:40:40.008Z,22.86
2018-02-14T11:43:07.544Z,22.12
2018-02-14T11:45:35.057Z,21.23
2018-02-14T11:48:02.558Z,20.54
2018-02-14T11:50:30.095Z,20.70
2018-02-14T11:52:57.698Z,20.12
2018-02-14T11:55:25.278Z,20.45
2018-02-14T11:57:52.977Z,19.75
2018-02-14T12:00:20.695Z,19.54
2018-02-14T12:02:48.242Z,19.06
2018-02-14T12:05:15.787Z,19.59
2018-02-14T12:07:43.337Z,19.10
2018-02-14T12:10:10.873Z,17.85
2018-02-14T12:12:38.379Z,17.23
2018-02-14T12:15:05.891Z,18.37
2018-02-14T12:17:33.401Z,18.41
2018-02-14T12:20:00.950Z,18.50
2018-02-14T12:22:28.465Z,18.14
2018-02-14T12:24:56.001Z,17.24
2018-02-14T12:27:23.544Z,17.81
2018-02-14T12:29:51.667Z,17.80
2018-02-14T12:32:19.273Z,17.16
2018-02-14T12:34:46.793Z,17.08
2018-02-14T12:37:14.354Z,16.92
2018-02-14T12:39:41.903Z,16.29
2018-02-14T12:42:09.480Z,15.96
2018-02-14T12:44:36.997Z,15.54
2018-02-14T12:47:04.556Z,16.58
2018-02-14T12:49:32.048Z,16.14
2018-02-14T12:51:59.559Z,16.37
2018-02-14T12:54:27.075Z,16.52
2018-02-14T12:56:54.575Z,15.52
2018-02-14T12:59:22.108Z,15.55
2018-02-14T13:01:49.589Z,16.03
2018-02-14T13:04:17.210Z,16.22
2018-02-14T13:06:44.703Z,16.92
2018-02-14T13:09:12.282Z,16.88
2018-02-14T13:11:39.817Z,18.27
2018-02-14T13:14:07.346Z,18.53
2018-02-14T13:16:35.648Z,19.47
2018-02-14T13:19:03.269Z,19.55
2018-02-14T13:21:30.814Z,20.30
2018-02-14T13:23:58.362Z,21.01
2018-02-14T13:26:25.902Z,21.56
2018-02-14T13:28:53.408Z,21.84
2018-02-14T13:31:20.953Z,22.27
2018-02-14T13:33:48.512Z,21.50
2018-02-14T13:36:16.128Z,21.35
2018-02-14T13:38:43.639Z,21.15
2018-02-14T13:41:11.171Z,20.88
2018-02-14T13:43:38.676Z,20.18
2018-02-14T13:46:06.167Z,19.63
2018-02-14T13:48:33.683Z,18.88
2018-02-14T13:51:01.209Z,18.57
2018-02-14T13:53:28.773Z,19.08
2018-02-14T13:55:56.319Z,18.36
2018-02-14T13:58:25.066Z,19.22
2018-02-14T14:00:52.562Z,19.25
2018-02-14T14:03:20.099Z,19.53
2018-02-14T14:05:47.757Z,19.62
2018-02-14T14:08:15.285Z,20.47
2018-02-14T14:10:42.788Z,21.34
2018-02-14T14:13:10.283Z,21.95
2018-02-14T14:15:37.809Z,22.26
2018-02-14T14:18:05.298Z,23.02
2018-02-14T14:20:32.906Z,23.69
2018-02-14T14:23:00.454Z,23.65
2018-02-14T14:25:28.126Z,23.79
2018-02-14T14:27:55.652Z,23.95
2018-02-14T14:30:23.268Z,23.85
2018-02-14T14:32:50.900Z,24.60
2018-02-14T14:35:18.448Z,24.46
2018-02-14T14:37:46.057Z,24.05
2018-02-14T14:40:13.569Z,24.80
2018-02-14T14:42:41.118Z,24.91
2018-02-14T14:45:08.637Z,25.22
2018-02-14T14:47:37.414Z,25.12
2018-02-14T14:50:04.959Z,25.17
2018-02-14T14:52:32.584Z,25.36
2018-02-14T14:55:00.282Z,25.36
2018-02-14T14:57:27.814Z,25.36
2018-02-14T14:59:55.339Z,25.68
2018-02-14T15:02:22.837Z,25.90
2018-02-14T15:04:50.559Z,25.95
2018-02-14T15:07:18.139Z,26.01
2018-02-14T15:09:45.686Z,26.31
2018-02-14T15:12:13.219Z,26.56
2018-02-14T15:14:40.769Z,26.54
2018-02-14T15:17:08.278Z,26.46
2018-02-14T15:19:35.785Z,26.24
2018-02-14T15:22:03.428Z,26.09
2018-02-14T15:24:30.928Z,26.47
2018-02-14T15:26:58.516Z,27.16
2018-02-14T15:29:26.036Z,28.13
2018-02-14T15:31:53.575Z,28.29
2018-02-14T15:34:21.081Z,27.98
2018-02-14T15:36:48.555Z,27.74
2018-02-14T15:39:16.101Z,27.47
2018-02-14T15:41:43.667Z,27.48
2018-02-14T15:44:11.199Z,28.25
2018-02-14T15:46:38.721Z,28.85
2018-02-14T15:49:06.284Z,28.60
2018-02-14T15:51:33.786Z,28.80
2018-02-14T15:54:01.335Z,29.91
2018-02-14T15:56:28.851Z,30.48
2018-02-14T15:58:56.414Z,31.06
2018-02-14T16:01:23.955Z,31.16
2018-02-14T16:03:51.552Z,30.83
2018-02-14T16:06:19.083Z,30.90
2018-02-14T16:08:46.575Z,31.31
2018-02-14T16:11:14.076Z,31.90
2018-02-14T16:13:41.593Z,31.87
2018-02-14T16:16:09.089Z,31.96
2018-02-14T16:18:36.707Z,32.30
2018-02-14T16:21:04.220Z,32.30
2018-02-14T16:23:31.754Z,32.53
2018-02-14T16:25:59.286Z,32.51
2018-02-14T16:28:26.908Z,32.72
2018-02-14T16:30:54.434Z,32.81
2018-02-14T16:33:21.930Z,32.79
2018-02-14T16:35:49.529Z,33.01
2018-02-14T16:38:17.060Z,33.51
2018-02-14T16:40:44.649Z,33.81
2018-02-14T16:43:12.250Z,33.96
2018-02-14T16:45:39.839Z,33.90
2018-02-14T16:48:07.388Z,33.99
2018-02-14T16:50:34.883Z,34.23
2018-02-14T16:53:02.398Z,34.56
2018-02-14T16:55:29.932Z,35.13
2018-02-14T16:57:57.507Z,35.38
2018-02-14T17:00:25.004Z,35.47
2018-02-14T17:02:52.555Z,36.03
2018-02-14T17:05:20.084Z,36.24
2018-02-14T17:07:47.637Z,36.58
2018-02-14T17:10:15.146Z,36.45
2018-02-14T17:12:42.666Z,36.71
2018-02-14T17:15:10.193Z,36.63
2018-02-14T17:17:37.723Z,36.55
2018-02-14T17:20:05.269Z,36.33
2018-02-14T17:22:32.750Z,36.45
2018-02-14T17:25:00.304Z,36.72
2018-02-14T17:27:27.828Z,36.78
2018-02-14T17:29:55.403Z,36.87
2018-02-14T17:32:23.028Z,37.01
2018-02-14T17:34:50.602Z,37.17
2018-02-14T17:37:18.184Z,37.48
2018-02-14T17:39:45.739Z,37.81
2018-02-14T17:42:13.392Z,38.14
2018-02-14T17:44:40.934Z,38.86
2018-02-14T17:47:09.011Z,39.19
2018-02-14T17:49:37.167Z,39.28
2018-02-14T17:52:04.648Z,39.80
2018-02-14T17:54:33.043Z,40.33
2018-02-14T17:57:00.540Z,40.60
2018-02-14T17:59:28.097Z,40.67
2018-02-14T18:01:55.582Z,40.61
2018-02-14T18:04:23.128Z,41.02
2018-02-14T18:06:50.632Z,40.84
2018-02-14T18:09:18.169Z,40.97
2018-02-14T18:11:45.667Z,41.49
2018-02-14T18:14:13.183Z,41.50
2018-02-14T18:16:40.702Z,41.47
2018-02-14T18:19:08.217Z,41.44
2018-02-14T18:21:35.768Z,41.62
2018-02-14T18:24:03.264Z,41.46
2018-02-14T18:26:30.809Z,41.15
2018-02-14T18:28:58.338Z,41.30
2018-02-14T18:31:25.936Z,41.10
2018-02-14T18:33:53.472Z,41.15
2018-02-14T18:36:21.015Z,41.57
2018-02-14T18:38:48.514Z,41.53
2018-02-14T18:41:16.617Z,41.56
2018-02-14T18:43:44.197Z,41.75
2018-02-14T18:46:14.218Z,41.90
2018-02-14T18:48:43.451Z,42.16
2018-02-14T18:51:11.321Z,42.17
2018-02-14T18:53:40.400Z,42.57
2018-02-14T18:56:09.130Z,42.55
2018-02-14T18:58:36.807Z,42.80
2018-02-14T19:01:04.320Z,42.92
2018-02-14T19:03:31.849Z,42.86
2018-02-14T19:05:59.370Z,43.09
2018-02-14T19:08:26.898Z,43.36
2018-02-14T19:10:54.452Z,43.46
2018-02-14T19:13:21.973Z,43.92
2018-02-14T19:15:49.596Z,44.17
2018-02-14T19:18:17.081Z,43.71
2018-02-14T19:20:44.578Z,43.66
2018-02-14T19:23:12.179Z,43.57
2018-02-14T19:25:39.753Z,43.86
2018-02-14T19:28:07.281Z,43.94
2018-02-14T19:30:34.771Z,44.28
2018-02-14T19:33:02.335Z,44.41
2018-02-14T19:35:29.908Z,44.90
2018-02-14T19:37:58.041Z,44.73
2018-02-14T19:40:26.055Z,44.98
2018-02-14T19:42:53.584Z,44.62
2018-02-14T19:45:21.111Z,44.86
2018-02-14T19:47:48.628Z,44.88
2018-02-14T19:50:16.170Z,45.23
2018-02-14T19:52:43.677Z,45.28
2018-02-14T19:55:11.226Z,45.20
2018-02-14T19:57:38.737Z,45.30
2018-02-14T20:00:06.230Z,45.12
2018-02-14T20:02:33.801Z,44.96
2018-02-14T20:05:01.367Z,44.88
2018-02-14T20:07:28.900Z,45.19
2018-02-14T20:09:57.164Z,45.25
2018-02-14T20:12:24.705Z,45.15
2018-02-14T20:14:52.218Z,45.17
2018-02-14T20:17:19.799Z,45.40
2018-02-14T20:19:47.305Z,45.37
2018-02-14T20:22:14.841Z,45.30
2018-02-14T20:24:42.356Z,45.52
2018-02-14T20:27:10.661Z,45.55
2018-02-14T20:29:38.264Z,45.43
2018-02-14T20:32:05.822Z,45.42
2018-02-14T20:34:33.374Z,45.24
2018-02-14T20:37:01.581Z,45.20
2018-02-14T20:39:29.084Z,45.12
2018-02-14T20:41:56.599Z,44.98
2018-02-14T20:44:24.123Z,44.85
2018-02-14T20:46:51.611Z,44.86
2018-02-14T20:49:19.134Z,44.97
2018-02-14T20:51:47.300Z,44.84
2018-02-14T20:54:14.841Z,44.86
2018-02-14T20:56:42.324Z,44.83
2018-02-14T20:59:10.461Z,45.18
2018-02-14T21:01:37.982Z,45.07
2018-02-14T21:04:05.525Z,45.34
2018-02-14T21:06:33.111Z,45.29
2018-02-14T21:09:00.607Z,45.36
2018-02-14T21:11:28.168Z,45.41
2018-02-14T21:13:55.670Z,45.33
2018-02-14T21:16:23.201Z,45.54
2018-02-14T21:18:50.780Z,45.75
2018-02-14T21:21:18.338Z,45.73
2018-02-14T21:23:45.867Z,45.93
2018-02-14T21:26:13.387Z,46.01
2018-02-14T21:28:40.898Z,46.07
2018-02-14T21:31:08.418Z,46.16
2018-02-14T21:33:35.927Z,46.24
2018-02-14T21:36:03.416Z,46.34
2018-02-14T21:38:30.961Z,46.59
2018-02-14T21:40:58.578Z,46.90
2018-02-14T21:43:26.171Z,47.25
2018-02-14T21:45:54.601Z,47.12
2018-02-14T21:48:22.121Z,47.16
2018-02-14T21:50:49.615Z,47.21
2018-02-14T21:53:17.114Z,47.48
2018-02-14T21:55:44.625Z,47.46
2018-02-14T21:58:13.548Z,47.50
2018-02-14T22:00:41.048Z,47.69
2018-02-14T22:03:08.536Z,47.59
2018-02-14T22:05:36.122Z,47.50
2018-02-14T22:08:03.639Z,47.40
2018-02-14T22:10:31.167Z,47.58
2018-02-14T22:12:58.701Z,47.63
2018-02-14T22:15:26.298Z,47.58
2018-02-14T22:17:54.443Z,47.65
2018-02-14T22:20:21.925Z,47.49
2018-02-14T22:22:49.474Z,47.73
2018-02-14T22:25:16.961Z,47.83
2018-02-14T22:27:44.477Z,47.90
2018-02-14T22:30:11.986Z,47.89
2018-02-14T22:32:39.615Z,48.00
2018-02-14T22:35:07.123Z,48.15
2018-02-14T22:37:34.676Z,48.21
2018-02-14T22:40:02.173Z,48.22
2018-02-14T22:42:29.677Z,48.16
2018-02-14T22:44:57.187Z,48.16
2018-02-14T22:47:24.720Z,48.17
2018-02-14T22:49:52.254Z,48.07
2018-02-14T22:52:19.751Z,48.29
2018-02-14T22:54:47.292Z,48.47
2018-02-14T22:57:14.777Z,48.29
2018-02-14T22:59:42.283Z,48.32
2018-02-14T23:02:09.772Z,48.26
2018-02-14T23:04:37.297Z,48.21
2018-02-14T23:07:04.782Z,48.24
2018-02-14T23:09:32.307Z,48.25
2018-02-14T23:11:59.816Z,48.24
2018-02-14T23:14:27.314Z,48.19
2018-02-14T23:16:54.855Z,48.33
2018-02-14T23:19:22.348Z,48.56
2018-02-14T23:21:49.865Z,48.62
2018-02-14T23:24:17.347Z,48.76
2018-02-14T23:26:44.834Z,48.57
2018-02-14T23:29:12.359Z,48.81
2018-02-14T23:31:39.841Z,48.83
2018-02-14T23:34:07.382Z,48.64
2018-02-14T23:36:34.865Z,48.70
2018-02-14T23:39:02.512Z,48.82
2018-02-14T23:41:30.130Z,48.88
2018-02-14T23:43:57.831Z,48.71
2018-02-14T23:46:25.359Z,48.98
2018-02-14T23:48:52.965Z,49.11
2018-02-14T23:51:20.570Z,49.22
2018-02-14T23:53:48.080Z,49.16
2018-02-14T23:56:15.680Z,49.29
2018-02-14T23:58:43.153Z,49.16
